Latest Weather Observations for Beaudesert AWS

IDQ60901

Issued at 9:11 pm EST Wednesday 17 July 2024 (issued every 10 minutes, with the page automatically refreshed every 10 minutes)

About weather observations | Map of Brisbane area stations | Latest observations for Brisbane area | Other Formats
Station Details ID: 040983 Name: BEAUDESERT DRUMLEY STREET Lat: -27.97 Lon: 152.99 Height: 47.81 m
Data from the previous 72 hours. | See also: Recent months at Beaudesert AWS
Date/Time
EST
Temp
°C
App
Temp
°C
Dew
Point
°C
Rel
Hum
%
Delta-T
°C
Wind Press
QNH
hPa
Press
MSL
hPa
Rain since
9am
mm
Dir  Spd
km/h
Gust
km/h
Spd
kts
Gust
kts
17/09:00pm 9.1 7.0 3.9 70 2.3 NNW 4 6 2 3 1013.8 1013.8 0.0
17/08:30pm 9.6 7.1 4.0 68 2.5 NNW 6 9 3 5 1013.6 1013.6 0.0
17/08:00pm 10.3 7.7 4.0 65 2.8 W 7 11 4 6 1013.4 1013.4 0.0
17/07:30pm 10.2 7.7 3.9 65 2.8 W 6 9 3 5 1013.1 1013.1 0.0
17/07:00pm 10.5 8.0 4.0 64 2.9 W 6 9 3 5 1012.7 1012.7 0.0
17/06:30pm 10.7 8.6 4.0 63 3.0 WNW 4 9 2 5 1012.3 1012.3 0.0
17/06:00pm 11.2 9.2 4.2 62 3.1 N 4 7 2 4 1011.7 1011.7 0.0
17/05:30pm 12.3 9.8 4.0 57 3.7 NW 6 11 3 6 1011.4 1011.4 0.0
17/05:00pm 13.1 10.5 4.3 55 4.0 WNW 7 13 4 7 1011.0 1011.0 0.0
17/04:30pm 13.6 10.2 4.2 53 4.3 W 11 17 6 9 1010.7 1010.7 0.0
17/04:00pm 15.0 10.6 4.7 50 4.8 W 17 28 9 15 1010.4 1010.4 0.0
17/03:30pm 15.0 10.0 4.7 50 4.8 W 20 33 11 18 1010.1 1010.1 0.0
17/03:00pm 15.4 10.1 4.8 49 5.0 W 22 33 12 18 1009.7 1009.7 0.0
17/02:30pm 15.6 10.5 4.3 47 5.3 W 20 32 11 17 1009.6 1009.6 0.0
17/02:00pm 16.1 11.4 5.1 48 5.2 WNW 19 32 10 17 1009.3 1009.3 0.0
17/01:30pm 15.5 10.1 4.6 48 5.1 WNW 22 39 12 21 1009.3 1009.3 0.0
17/01:00pm 15.7 10.9 4.7 48 5.2 WNW 19 32 10 17 1009.6 1009.6 0.0
17/12:30pm 15.5 10.5 4.8 49 5.0 WNW 20 32 11 17 1010.0 1010.0 0.0
17/12:00pm 15.0 10.0 4.7 50 4.8 W 20 37 11 20 1010.5 1010.5 0.0
17/11:30am 14.7 9.9 4.7 51 4.7 WNW 19 32 10 17 1011.0 1011.0 0.0
17/11:00am 14.7 10.2 4.1 49 4.9 W 17 28 9 15 1011.5 1011.5 0.0
17/10:30am 14.2 10.1 4.5 52 4.5 W 15 24 8 13 1012.3 1012.3 0.0
17/10:00am 13.8 9.0 4.4 53 4.3 W 19 30 10 16 1012.6 1012.6 0.0
17/09:30am 12.9 8.7 3.8 54 4.1 WSW 15 24 8 13 1012.9 1012.9 0.0
17/09:00am 12.0 7.8 4.0 58 3.6 WNW 15 24 8 13 1012.8 1012.8 0.0
17/08:30am 11.3 7.5 4.1 61 3.2 W 13 20 7 11 1012.6 1012.6 0.0
17/08:00am 10.5 7.8 3.8 63 3.0 WSW 7 13 4 7 1012.8 1012.8 0.0
17/07:30am 8.8 6.2 3.4 69 2.3 W 6 9 3 5 1012.5 1012.5 0.0
17/07:00am 8.8 5.2 3.0 67 2.5 W 11 19 6 10 1012.2 1012.2 0.0
17/06:30am 6.9 4.9 2.4 73 1.9 W 2 11 1 6 1012.1 1012.1 0.0
17/06:00am 7.1 4.3 1.8 69 2.2 WNW 6 9 3 5 1011.6 1011.6 0.0
17/05:30am 6.7 5.0 2.0 72 1.9 CALM 0 0 0 0 1011.3 1011.3 0.0
17/05:00am 6.2 4.0 1.1 70 2.0 N 2 6 1 3 1010.8 1010.8 0.0
17/04:30am 8.8 6.7 1.5 60 3.0 W 2 6 1 3 1010.3 1010.3 0.0
17/04:00am 7.8 4.2 0.8 61 2.8 W 9 15 5 8 1010.1 1010.1 0.0
17/03:30am 7.8 5.4 1.9 66 2.4 N 4 7 2 4 1010.2 1010.2 0.0
17/03:00am 6.9 4.7 1.0 66 2.4 NNE 2 6 1 3 1010.1 1010.1 0.0
17/02:30am 7.2 5.4 1.1 65 2.4 CALM 0 2 0 1 1010.2 1010.2 0.0
17/02:00am 10.1 7.6 1.7 56 3.5 N 4 6 2 3 1010.4 1010.4 0.0
17/01:30am 10.0 7.9 1.4 55 3.6 N 2 6 1 3 1010.5 1010.5 0.0
17/01:00am 11.7 7.9 1.6 50 4.3 WSW 11 22 6 12 1010.5 1010.5 0.0
17/12:30am 11.2 7.4 1.5 51 4.1 W 11 19 6 10 1010.5 1010.5 0.0
17/12:00am 9.8 7.2 0.9 54 3.7 NW 4 6 2 3 1010.9 1010.9 0.0
 
Date/Time
EST
Temp
°C
App
Temp
°C
Dew
Point
°C
Rel
Hum
%
Delta-T
°C
Wind Press
QNH
hPa
Press
MSL
hPa
Rain since
9am
mm
Dir  Spd
km/h
Gust
km/h
Spd
kts
Gust
kts
16/11:30pm 7.2 4.5 0.6 63 2.6 ENE 4 6 2 3 1011.2 1011.2 0.0
16/11:00pm 9.5 6.9 1.2 56 3.4 NNE 4 6 2 3 1011.4 1011.4 0.0
16/10:30pm 11.5 8.6 1.2 49 4.3 WNW 6 15 3 8 1011.5 1011.5 0.0
16/10:00pm 12.5 8.3 1.8 48 4.6 W 13 28 7 15 1011.3 1011.3 0.0
16/09:30pm 12.2 8.5 2.4 51 4.3 W 11 17 6 9 1011.4 1011.4 0.0
16/09:00pm 12.5 8.5 2.7 51 4.3 W 13 20 7 11 1011.4 1011.4 0.0
16/08:30pm 12.5 8.5 2.7 51 4.3 WSW 13 19 7 10 1011.3 1011.3 0.0
16/08:00pm 12.7 8.7 2.6 50 4.4 WSW 13 20 7 11 1011.2 1011.2 0.0
16/07:30pm 12.9 9.2 2.2 48 4.7 WSW 11 19 6 10 1011.0 1011.0 0.0
16/07:00pm 12.8 9.8 2.1 48 4.7 W 7 13 4 7 1010.5 1010.5 0.0
16/06:30pm 13.5 10.1 1.8 45 5.1 W 9 13 5 7 1010.1 1010.1 0.0
16/06:00pm 14.1 10.2 1.4 42 5.5 W 11 24 6 13 1009.6 1009.6 0.0
16/05:30pm 14.5 10.2 0.7 39 5.9 W 13 24 7 13 1009.2 1009.2 0.0
16/05:00pm 15.2 8.7 0.2 36 6.4 W 24 43 13 23 1008.6 1008.6 0.0
16/04:30pm 15.9 9.1 0.9 36 6.5 W 26 41 14 22 1008.3 1008.3 0.0
16/04:00pm 16.6 10.9 0.7 34 6.9 W 20 35 11 19 1008.3 1008.3 0.0
16/03:30pm 17.2 10.8 0.8 33 7.2 WSW 24 44 13 24 1008.7 1008.7 0.0
16/03:00pm 16.6 10.2 1.1 35 6.8 W 24 43 13 23 1008.0 1008.0 0.0
16/02:30pm 18.0 11.3 1.5 33 7.4 WSW 26 39 14 21 1008.4 1008.4 0.0
16/02:00pm 17.9 11.2 1.4 33 7.4 WSW 26 39 14 21 1008.3 1008.3 0.0
16/01:30pm 17.6 11.4 2.0 35 7.0 WSW 24 39 13 21 1008.5 1008.5 0.0
16/01:00pm 16.6 9.6 1.9 37 6.6 WSW 28 44 15 24 1008.5 1008.5 0.0
16/12:30pm 16.0 7.9 1.3 37 6.5 WSW 33 50 18 27 1009.2 1009.2 0.0
16/12:19pm 16.1 9.0 1.4 37 6.5 W 28 46 15 25 1009.4 1009.4 0.0
16/12:00pm 16.0 9.5 2.8 41 6.0 WSW 26 46 14 25 1009.5 1009.5 0.0
16/11:30am 16.1 9.9 2.2 39 6.2 WSW 24 39 13 21 1010.2 1010.2 0.0
16/11:00am 16.7 11.4 3.1 40 6.2 WSW 20 35 11 19 1010.7 1010.7 0.0
16/10:30am 16.1 10.5 3.5 43 5.8 W 22 37 12 20 1010.9 1010.9 0.0
16/10:00am 14.7 12.4 5.5 54 4.4 WNW 7 17 4 9 1011.1 1011.1 0.0
16/09:30am 13.0 10.1 4.7 57 3.8 NNW 9 19 5 10 1011.5 1011.5 0.0
16/09:00am 9.7 9.0 7.1 84 1.2 CALM 0 4 0 2 1011.8 1011.8 0.0
16/08:30am 6.0 4.7 4.3 89 0.7 CALM 0 0 0 0 1012.0 1012.0 0.0
16/08:00am 4.0 2.6 3.7 98 0.1 CALM 0 0 0 0 1012.0 1012.0 0.0
16/07:30am 0.8 -1.1 0.4 97 0.1 CALM 0 0 0 0 1011.8 1011.8 0.0
16/07:00am 0.1 -2.0 -0.5 96 0.2 CALM 0 0 0 0 1011.4 1011.4 0.0
16/06:30am 0.0 -2.1 -0.6 96 0.2 CALM 0 2 0 1 1011.3 1011.3 0.0
16/06:00am 0.1 -2.0 -0.5 96 0.2 CALM 0 0 0 0 1011.1 1011.1 0.0
16/05:30am 0.1 -2.0 -0.5 96 0.2 CALM 0 0 0 0 1011.0 1011.0 0.0
16/05:00am 0.5 -1.5 -0.1 96 0.2 CALM 0 0 0 0 1010.7 1010.7 0.0
16/04:30am 0.8 -1.2 0.2 96 0.2 CALM 0 0 0 0 1010.6 1010.6 0.0
16/04:00am 0.7 -1.3 0.0 95 0.3 CALM 0 0 0 0 1010.6 1010.6 0.0
16/03:30am 1.1 -0.8 0.4 95 0.3 CALM 0 2 0 1 1010.6 1010.6 0.0
16/03:00am 1.4 -0.5 0.7 95 0.3 CALM 0 0 0 0 1010.8 1010.8 0.0
16/02:30am 1.9 0.1 1.2 95 0.3 CALM 0 0 0 0 1010.9 1010.9 0.0
16/02:00am 2.4 0.6 1.5 94 0.3 CALM 0 0 0 0 1011.0 1011.0 0.0
16/01:30am 2.4 0.6 1.2 92 0.5 CALM 0 0 0 0 1011.0 1011.0 0.0
16/01:00am 3.2 1.5 2.0 92 0.5 CALM 0 0 0 0 1011.2 1011.2 0.0
16/12:30am 3.1 1.3 1.5 89 0.6 CALM 0 0 0 0 1011.4 1011.4 0.0
16/12:00am 4.1 2.6 2.8 91 0.5 CALM 0 0 0 0 1011.4 1011.4 0.0
 
Date/Time
EST
Temp
°C
App
Temp
°C
Dew
Point
°C
Rel
Hum
%
Delta-T
°C
Wind Press
QNH
hPa
Press
MSL
hPa
Rain since
9am
mm
Dir  Spd
km/h
Gust
km/h
Spd
kts
Gust
kts
15/11:30pm 5.0 3.5 3.0 87 0.8 CALM 0 0 0 0 1011.4 1011.4 0.0
15/11:00pm 4.4 2.4 2.3 86 0.8 NNW 2 4 1 2 1011.5 1011.5 0.0
15/10:30pm 5.3 3.3 2.3 81 1.2 N 2 6 1 3 1011.6 1011.6 0.0
15/10:00pm 5.6 4.1 2.8 82 1.2 CALM 0 2 0 1 1011.7 1011.7 0.0
15/09:30pm 8.2 6.8 3.7 73 1.9 CALM 0 0 0 0 1011.6 1011.6 0.0
15/09:00pm 7.8 5.9 2.7 70 2.1 E 2 4 1 2 1011.6 1011.6 0.0
15/08:30pm 7.8 6.4 3.5 74 1.8 CALM 0 6 0 3 1011.5 1011.5 0.0
15/08:00pm 9.7 7.5 3.2 64 2.8 E 4 6 2 3 1011.4 1011.4 0.0
15/07:30pm 9.6 7.4 3.4 65 2.7 NE 4 6 2 3 1011.3 1011.3 0.0
15/07:00pm 11.5 9.0 3.5 58 3.5 WNW 6 7 3 4 1010.9 1010.9 0.0
15/06:30pm 12.9 9.6 2.7 50 4.5 W 9 13 5 7 1010.5 1010.5 0.0
15/06:00pm 13.0 10.2 3.1 51 4.4 W 7 15 4 8 1010.3 1010.3 0.0
15/05:30pm 13.9 11.7 3.4 49 4.7 WNW 4 6 2 3 1009.9 1009.9 0.0
15/05:00pm 14.9 12.4 3.7 47 5.1 W 6 9 3 5 1009.5 1009.5 0.0
15/04:30pm 15.2 12.1 3.4 45 5.4 W 9 13 5 7 1009.3 1009.3 0.0
15/04:00pm 17.2 13.6 3.1 39 6.5 W 11 19 6 10 1009.1 1009.1 0.0
15/03:30pm 17.8 13.0 2.5 36 7.0 WSW 17 24 9 13 1008.9 1008.9 0.0
15/03:00pm 18.2 13.4 2.5 35 7.2 SW 17 28 9 15 1008.9 1008.9 0.0
15/02:30pm 18.7 13.6 3.3 36 7.2 WSW 19 26 10 14 1008.9 1008.9 0.0
15/02:00pm 18.6 14.1 4.4 39 6.8 W 17 28 9 15 1009.0 1009.0 0.0
15/01:30pm 18.0 14.1 3.5 38 6.8 SW 13 24 7 13 1009.2 1009.2 0.0
15/01:00pm 17.8 14.4 4.0 40 6.5 SSW 11 19 6 10 1009.4 1009.4 0.0
15/12:30pm 17.6 14.6 3.9 40 6.4 SSW 9 20 5 11 1009.7 1009.7 0.0
15/12:00pm 17.2 14.2 4.2 42 6.1 WSW 9 15 5 8 1010.3 1010.3 0.0
15/11:30am 17.0 13.8 5.0 45 5.7 SW 11 17 6 9 1010.8 1010.8 0.0
15/11:00am 16.0 12.7 4.4 46 5.4 SW 11 20 6 11 1011.4 1011.4 0.0
15/10:30am 14.9 11.0 3.4 46 5.2 SSW 13 20 7 11 1011.9 1011.9 0.0
15/10:00am 14.3 10.9 4.0 50 4.7 SSW 11 15 6 8 1012.3 1012.3 0.0
15/09:30am 13.0 9.7 4.4 56 3.9 SSW 11 20 6 11 1012.6 1012.6 0.0
15/09:00am 11.4 9.1 5.7 68 2.6 SW 7 13 4 7 1012.6 1012.6 0.0
15/08:30am 7.4 6.4 5.4 87 0.9 CALM 0 4 0 2 1012.6 1012.6 0.0
15/08:00am 4.3 2.6 3.9 97 0.2 SE 2 4 1 2 1012.6 1012.6 0.0
15/07:30am 1.4 -0.5 0.8 96 0.2 CALM 0 0 0 0 1012.5 1012.5 0.0
15/07:00am 1.1 -0.8 0.5 96 0.2 CALM 0 0 0 0 1012.1 1012.1 0.0
15/06:30am 0.6 -1.8 -0.1 95 0.3 ESE 2 4 1 2 1011.9 1011.9 0.0
15/06:00am 1.2 -0.7 0.5 95 0.3 CALM 0 0 0 0 1011.7 1011.7 0.0
15/05:30am 1.0 -0.9 0.3 95 0.3 CALM 0 0 0 0 1011.6 1011.6 0.0
15/05:00am 0.8 -1.2 -0.3 92 0.4 CALM 0 2 0 1 1011.3 1011.3 0.0
15/04:30am 1.6 -0.3 0.4 92 0.4 CALM 0 0 0 0 1011.2 1011.2 0.0
15/04:00am 3.0 1.3 1.7 91 0.5 CALM 0 4 0 2 1011.3 1011.3 0.0
15/03:30am 3.8 2.2 2.2 89 0.6 CALM 0 0 0 0 1011.4 1011.4 0.0
15/03:00am 4.3 2.8 2.8 90 0.6 CALM 0 0 0 0 1011.7 1011.7 0.0
15/02:30am 4.1 2.4 2.1 87 0.8 CALM 0 0 0 0 1011.7 1011.7 0.0
15/02:00am 4.5 2.9 2.2 85 0.9 CALM 0 0 0 0 1011.7 1011.7 0.0
15/01:30am 5.1 3.4 1.9 80 1.3 CALM 0 0 0 0 1011.8 1011.8 0.0
15/01:00am 6.5 5.0 3.1 79 1.4 CALM 0 2 0 1 1012.1 1012.1 0.0
15/12:30am 6.8 5.4 3.4 79 1.4 CALM 0 6 0 3 1012.1 1012.1 0.0
15/12:00am 6.4 4.9 2.9 78 1.5 CALM 0 2 0 1 1012.3 1012.3 0.0
 
Date/Time
EST
Temp
°C
App
Temp
°C
Dew
Point
°C
Rel
Hum
%
Delta-T
°C
Wind Press
QNH
hPa
Press
MSL
hPa
Rain since
9am
mm
Dir  Spd
km/h
Gust
km/h
Spd
kts
Gust
kts
14/11:30pm 5.5 2.9 3.3 86 0.9 E 6 6 3 3 1012.3 1012.3 0.0
14/11:00pm 5.0 2.7 2.7 85 0.9 SSE 4 6 2 3 1012.7 1012.7 0.0
14/10:30pm 8.4 7.0 3.7 72 2.0 CALM 0 0 0 0 1013.0 1013.0 0.0
14/10:00pm 8.5 7.2 4.1 74 1.9 CALM 0 2 0 1 1013.1 1013.1 0.0
14/09:30pm 8.4 6.3 3.7 72 2.0 S 4 6 2 3 1013.1 1013.1 0.0

Latest Capital City Observations: Canberra | Sydney | Melbourne | Brisbane | Adelaide | Perth | Hobart | Darwin

Other formats

Comma delimited format used in spreadsheet applications
http://www.bom.gov.au/fwo/IDQ60901/IDQ60901.95575.axf

JavaScript Object Notation format (JSON) in row-major order
http://www.bom.gov.au/fwo/IDQ60901/IDQ60901.95575.json

Data quality

Most of these data are generated automatically and are frequently updated. Quality checks on data are not normally performed. It is possible for incorrect values to appear. Refer to information at About Latest Weather Observations and please check the disclaimer before using these data.